sensor_id;sensor_type;location;lat;lon;timestamp;pressure;altitude;pressure_sealevel;temperature;humidity
55456;BME280;63021;52.836;6.376;2023-02-13T00:00:23;103932.84;;;7.05;76.48
55456;BME280;63021;52.836;6.376;2023-02-13T00:02:50;103934.59;;;7.06;76.36
55456;BME280;63021;52.836;6.376;2023-02-13T00:05:15;103938.31;;;7.00;76.93
55456;BME280;63021;52.836;6.376;2023-02-13T00:07:41;103938.41;;;6.97;76.55
55456;BME280;63021;52.836;6.376;2023-02-13T00:10:07;103930.34;;;7.00;76.40
55456;BME280;63021;52.836;6.376;2023-02-13T00:12:33;103919.97;;;6.94;76.66
55456;BME280;63021;52.836;6.376;2023-02-13T00:14:58;103952.50;;;6.98;76.54
55456;BME280;63021;52.836;6.376;2023-02-13T00:17:24;103927.91;;;6.94;76.59
55456;BME280;63021;52.836;6.376;2023-02-13T00:19:50;103947.19;;;6.98;76.51
55456;BME280;63021;52.836;6.376;2023-02-13T00:22:16;103921.63;;;6.97;76.43
55456;BME280;63021;52.836;6.376;2023-02-13T00:24:44;103914.72;;;6.91;76.43
55456;BME280;63021;52.836;6.376;2023-02-13T00:27:10;103914.56;;;6.97;76.22
55456;BME280;63021;52.836;6.376;2023-02-13T00:29:35;103922.56;;;6.96;76.51
55456;BME280;63021;52.836;6.376;2023-02-13T00:32:00;103913.69;;;6.97;76.46
55456;BME280;63021;52.836;6.376;2023-02-13T00:34:26;103920.81;;;6.94;76.66
55456;BME280;63021;52.836;6.376;2023-02-13T00:36:52;103917.38;;;6.92;76.38
55456;BME280;63021;52.836;6.376;2023-02-13T00:39:17;103910.16;;;6.96;76.54
55456;BME280;63021;52.836;6.376;2023-02-13T00:41:43;103908.47;;;6.93;76.04
55456;BME280;63021;52.836;6.376;2023-02-13T00:44:09;103903.13;;;6.95;76.08
55456;BME280;63021;52.836;6.376;2023-02-13T00:46:34;103897.84;;;6.95;76.31
55456;BME280;63021;52.836;6.376;2023-02-13T00:49:00;103890.03;;;6.90;76.58
55456;BME280;63021;52.836;6.376;2023-02-13T00:51:27;103900.47;;;6.95;76.74
55456;BME280;63021;52.836;6.376;2023-02-13T00:53:52;103894.28;;;6.96;76.22
55456;BME280;63021;52.836;6.376;2023-02-13T00:56:18;103908.38;;;6.97;76.25
55456;BME280;63021;52.836;6.376;2023-02-13T00:58:43;103897.78;;;6.97;75.86
55456;BME280;63021;52.836;6.376;2023-02-13T01:01:09;103902.31;;;6.93;75.91
55456;BME280;63021;52.836;6.376;2023-02-13T01:03:34;103910.97;;;6.98;76.05
55456;BME280;63021;52.836;6.376;2023-02-13T01:08:45;103914.72;;;6.91;75.80
55456;BME280;63021;52.836;6.376;2023-02-13T01:11:10;103919.88;;;6.97;75.72
55456;BME280;63021;52.836;6.376;2023-02-13T01:13:36;103916.28;;;6.98;75.97
55456;BME280;63021;52.836;6.376;2023-02-13T01:16:01;103912.72;;;6.99;75.40
55456;BME280;63021;52.836;6.376;2023-02-13T01:18:27;103913.56;;;7.01;75.36
55456;BME280;63021;52.836;6.376;2023-02-13T01:20:58;103910.91;;;7.01;75.34
55456;BME280;63021;52.836;6.376;2023-02-13T01:23:24;103910.03;;;7.01;75.91
55456;BME280;63021;52.836;6.376;2023-02-13T01:25:50;103904.78;;;6.99;75.26
55456;BME280;63021;52.836;6.376;2023-02-13T01:28:16;103921.56;;;6.98;75.82
55456;BME280;63021;52.836;6.376;2023-02-13T01:30:41;103926.00;;;6.98;75.64
55456;BME280;63021;52.836;6.376;2023-02-13T01:33:09;103934.88;;;6.97;75.67
55456;BME280;63021;52.836;6.376;2023-02-13T01:35:38;103906.63;;;6.97;75.68
55456;BME280;63021;52.836;6.376;2023-02-13T01:38:03;103911.03;;;6.97;75.83
55456;BME280;63021;52.836;6.376;2023-02-13T01:40:29;103910.22;;;6.94;76.04
55456;BME280;63021;52.836;6.376;2023-02-13T01:42:54;103902.44;;;6.90;76.46
55456;BME280;63021;52.836;6.376;2023-02-13T01:45:28;103895.19;;;6.95;76.13
55456;BME280;63021;52.836;6.376;2023-02-13T01:48:06;103904.06;;;6.94;76.27
55456;BME280;63021;52.836;6.376;2023-02-13T01:50:49;103912.00;;;6.94;76.44
55456;BME280;63021;52.836;6.376;2023-02-13T01:56:08;103921.66;;;6.95;75.66
55456;BME280;63021;52.836;6.376;2023-02-13T01:58:36;103905.78;;;6.95;76.29
55456;BME280;63021;52.836;6.376;2023-02-13T02:01:05;103904.94;;;6.94;75.58
55456;BME280;63021;52.836;6.376;2023-02-13T02:03:38;103894.38;;;6.93;76.23
55456;BME280;63021;52.836;6.376;2023-02-13T02:06:10;103888.34;;;6.88;75.83
55456;BME280;63021;52.836;6.376;2023-02-13T02:08:36;103900.63;;;6.90;76.18
55456;BME280;63021;52.836;6.376;2023-02-13T02:11:13;103893.53;;;6.91;76.03
55456;BME280;63021;52.836;6.376;2023-02-13T02:13:41;103887.41;;;6.90;76.29
55456;BME280;63021;52.836;6.376;2023-02-13T02:16:08;103884.78;;;6.89;76.05
55456;BME280;63021;52.836;6.376;2023-02-13T02:18:33;103888.34;;;6.88;75.82
55456;BME280;63021;52.836;6.376;2023-02-13T02:29:45;103889.28;;;6.87;75.93
55456;BME280;63021;52.836;6.376;2023-02-13T02:35:30;103902.69;;;6.81;75.98
55456;BME280;63021;52.836;6.376;2023-02-13T02:43:30;103880.66;;;6.80;76.11
55456;BME280;63021;52.836;6.376;2023-02-13T02:48:48;103893.09;;;6.78;76.13
55456;BME280;63021;52.836;6.376;2023-02-13T02:54:12;103876.41;;;6.74;76.14
55456;BME280;63021;52.836;6.376;2023-02-13T02:57:11;103890.56;;;6.73;76.46
55456;BME280;63021;52.836;6.376;2023-02-13T02:59:40;103884.41;;;6.73;76.33
55456;BME280;63021;52.836;6.376;2023-02-13T03:02:25;103887.00;;;6.74;75.94
55456;BME280;63021;52.836;6.376;2023-02-13T03:05:36;103881.66;;;6.76;76.17
55456;BME280;63021;52.836;6.376;2023-02-13T03:08:23;103884.31;;;6.76;75.74
55456;BME280;63021;52.836;6.376;2023-02-13T03:11:08;103877.25;;;6.75;75.97
55456;BME280;63021;52.836;6.376;2023-02-13T03:13:53;103872.84;;;6.75;75.85
55456;BME280;63021;52.836;6.376;2023-02-13T03:16:23;103872.84;;;6.75;76.20
55456;BME280;63021;52.836;6.376;2023-02-13T03:22:28;103871.13;;;6.74;76.03
55456;BME280;63021;52.836;6.376;2023-02-13T03:28:00;103872.84;;;6.75;76.27
55456;BME280;63021;52.836;6.376;2023-02-13T03:39:11;103864.97;;;6.74;75.94
55456;BME280;63021;52.836;6.376;2023-02-13T03:41:44;103870.44;;;6.68;75.88
55456;BME280;63021;52.836;6.376;2023-02-13T03:44:17;103869.53;;;6.69;76.19
55456;BME280;63021;52.836;6.376;2023-02-13T03:46:47;103885.47;;;6.67;76.50
55456;BME280;63021;52.836;6.376;2023-02-13T03:49:28;103882.84;;;6.66;76.56
55456;BME280;63021;52.836;6.376;2023-02-13T03:52:33;103881.91;;;6.68;76.15
55456;BME280;63021;52.836;6.376;2023-02-13T03:55:06;103873.03;;;6.69;75.73
55456;BME280;63021;52.836;6.376;2023-02-13T03:57:54;103873.03;;;6.69;76.44
55456;BME280;63021;52.836;6.376;2023-02-13T04:00:43;103881.91;;;6.68;76.24
55456;BME280;63021;52.836;6.376;2023-02-13T04:03:34;103881.81;;;6.71;76.02
55456;BME280;63021;52.836;6.376;2023-02-13T04:08:50;103895.19;;;6.67;75.95
55456;BME280;63021;52.836;6.376;2023-02-13T04:14:20;103883.56;;;6.72;76.43
55456;BME280;63021;52.836;6.376;2023-02-13T04:16:50;103873.13;;;6.66;76.38
55456;BME280;63021;52.836;6.376;2023-02-13T04:19:17;103872.22;;;6.67;76.63
55456;BME280;63021;52.836;6.376;2023-02-13T04:21:48;103863.38;;;6.68;76.48
55456;BME280;63021;52.836;6.376;2023-02-13T04:24:14;103888.16;;;6.66;76.30
55456;BME280;63021;52.836;6.376;2023-02-13T04:26:41;103877.50;;;6.67;76.10
55456;BME280;63021;52.836;6.376;2023-02-13T04:29:08;103867.78;;;6.68;76.14
55456;BME280;63021;52.836;6.376;2023-02-13T04:31:34;103878.38;;;6.68;76.42
55456;BME280;63021;52.836;6.376;2023-02-13T04:34:00;103873.03;;;6.69;76.18
55456;BME280;63021;52.836;6.376;2023-02-13T04:36:25;103864.28;;;6.67;75.90
55456;BME280;63021;52.836;6.376;2023-02-13T04:38:50;103872.03;;;6.73;75.92
55456;BME280;63021;52.836;6.376;2023-02-13T04:41:16;103876.47;;;6.73;75.91
55456;BME280;63021;52.836;6.376;2023-02-13T04:43:42;103872.16;;;6.69;75.98
55456;BME280;63021;52.836;6.376;2023-02-13T04:46:07;103868.66;;;6.68;75.77
55456;BME280;63021;52.836;6.376;2023-02-13T04:48:33;103861.81;;;6.61;75.92
55456;BME280;63021;52.836;6.376;2023-02-13T04:50:58;103863.47;;;6.65;76.41
55456;BME280;63021;52.836;6.376;2023-02-13T04:53:24;103865.22;;;6.65;76.54
55456;BME280;63021;52.836;6.376;2023-02-13T04:55:50;103851.25;;;6.61;76.25
55456;BME280;63021;52.836;6.376;2023-02-13T04:58:16;103865.19;;;6.66;76.30
55456;BME280;63021;52.836;6.376;2023-02-13T05:00:41;103856.38;;;6.66;76.63
55456;BME280;63021;52.836;6.376;2023-02-13T05:03:09;103859.94;;;6.65;76.57
55456;BME280;63021;52.836;6.376;2023-02-13T05:05:35;103857.34;;;6.63;76.48
55456;BME280;63021;52.836;6.376;2023-02-13T05:08:01;103852.00;;;6.65;76.81
55456;BME280;63021;52.836;6.376;2023-02-13T05:10:26;103850.41;;;6.59;76.62
55456;BME280;63021;52.836;6.376;2023-02-13T05:12:52;103854.63;;;6.65;76.78
55456;BME280;63021;52.836;6.376;2023-02-13T05:15:17;103850.25;;;6.64;76.23
55456;BME280;63021;52.836;6.376;2023-02-13T05:17:44;103862.72;;;6.60;76.83
55456;BME280;63021;52.836;6.376;2023-02-13T05:20:10;103854.69;;;6.63;76.46
55456;BME280;63021;52.836;6.376;2023-02-13T05:22:35;103845.16;;;6.57;76.81
55456;BME280;63021;52.836;6.376;2023-02-13T05:25:19;103880.34;;;6.61;76.36
55456;BME280;63021;52.836;6.376;2023-02-13T05:27:45;103857.38;;;6.62;76.46
55456;BME280;63021;52.836;6.376;2023-02-13T05:30:11;103860.03;;;6.62;76.53
55456;BME280;63021;52.836;6.376;2023-02-13T05:32:37;103849.50;;;6.60;76.36
55456;BME280;63021;52.836;6.376;2023-02-13T05:35:03;103849.59;;;6.57;76.96
55456;BME280;63021;52.836;6.376;2023-02-13T05:37:29;103846.94;;;6.57;76.90
55456;BME280;63021;52.836;6.376;2023-02-13T05:39:54;103860.94;;;6.61;76.11
55456;BME280;63021;52.836;6.376;2023-02-13T05:42:20;103849.69;;;6.54;76.84
55456;BME280;63021;52.836;6.376;2023-02-13T05:44:45;103865.38;;;6.60;76.46
55456;BME280;63021;52.836;6.376;2023-02-13T05:47:10;103853.16;;;6.56;76.51
55456;BME280;63021;52.836;6.376;2023-02-13T05:49:36;103867.16;;;6.59;76.28
55456;BME280;63021;52.836;6.376;2023-02-13T05:52:01;103866.22;;;6.61;76.84
55456;BME280;63021;52.836;6.376;2023-02-13T05:54:26;103863.59;;;6.61;76.75
55456;BME280;63021;52.836;6.376;2023-02-13T05:56:52;103867.16;;;6.59;76.35
55456;BME280;63021;52.836;6.376;2023-02-13T05:59:17;103863.59;;;6.61;76.44
55456;BME280;63021;52.836;6.376;2023-02-13T06:01:43;103851.34;;;6.58;76.79
55456;BME280;63021;52.836;6.376;2023-02-13T06:04:08;103882.16;;;6.59;76.44
55456;BME280;63021;52.836;6.376;2023-02-13T06:06:33;103867.22;;;6.58;76.70
55456;BME280;63021;52.836;6.376;2023-02-13T06:08:59;103879.72;;;6.53;76.55
55456;BME280;63021;52.836;6.376;2023-02-13T06:11:24;103872.53;;;6.56;76.50
55456;BME280;63021;52.836;6.376;2023-02-13T06:13:49;103884.94;;;6.54;76.70
55456;BME280;63021;52.836;6.376;2023-02-13T06:16:15;103869.13;;;6.53;76.70
55456;BME280;63021;52.836;6.376;2023-02-13T06:18:40;103892.84;;;6.56;76.93
55456;BME280;63021;52.836;6.376;2023-02-13T06:21:06;103869.13;;;6.53;77.02
55456;BME280;63021;52.836;6.376;2023-02-13T06:23:32;103882.53;;;6.47;77.03
55456;BME280;63021;52.836;6.376;2023-02-13T06:26:05;103869.13;;;6.53;76.81
55456;BME280;63021;52.836;6.376;2023-02-13T06:28:31;103899.19;;;6.50;77.17
55456;BME280;63021;52.836;6.376;2023-02-13T06:30:56;103891.28;;;6.49;77.16
55456;BME280;63021;52.836;6.376;2023-02-13T06:33:22;103880.50;;;6.55;77.33
55456;BME280;63021;52.836;6.376;2023-02-13T06:35:47;103880.63;;;6.52;77.03
55456;BME280;63021;52.836;6.376;2023-02-13T06:38:13;103888.50;;;6.53;77.16
55456;BME280;63021;52.836;6.376;2023-02-13T06:40:39;103871.88;;;6.50;76.76
55456;BME280;63021;52.836;6.376;2023-02-13T06:43:04;103879.66;;;6.54;77.08
55456;BME280;63021;52.836;6.376;2023-02-13T06:45:30;103891.09;;;6.55;77.04
55456;BME280;63021;52.836;6.376;2023-02-13T06:47:55;103882.44;;;6.50;76.85
55456;BME280;63021;52.836;6.376;2023-02-13T06:50:20;103899.09;;;6.53;76.86
55456;BME280;63021;52.836;6.376;2023-02-13T06:52:47;103882.44;;;6.50;77.02
55456;BME280;63021;52.836;6.376;2023-02-13T06:55:13;103890.25;;;6.54;76.79
55456;BME280;63021;52.836;6.376;2023-02-13T06:57:40;103894.69;;;6.54;77.44
55456;BME280;63021;52.836;6.376;2023-02-13T07:00:06;103893.84;;;6.52;77.44
55456;BME280;63021;52.836;6.376;2023-02-13T07:02:32;103891.19;;;6.52;76.81
55456;BME280;63021;52.836;6.376;2023-02-13T07:04:57;103896.41;;;6.55;76.90
55456;BME280;63021;52.836;6.376;2023-02-13T07:07:23;103930.81;;;6.55;76.90
55456;BME280;63021;52.836;6.376;2023-02-13T07:09:48;103913.16;;;6.55;77.36
55456;BME280;63021;52.836;6.376;2023-02-13T07:12:14;103902.75;;;6.49;77.37
55456;BME280;63021;52.836;6.376;2023-02-13T07:14:40;103913.13;;;6.57;76.86
55456;BME280;63021;52.836;6.376;2023-02-13T07:17:05;103910.47;;;6.57;76.98
55456;BME280;63021;52.836;6.376;2023-02-13T07:19:31;103910.38;;;6.60;77.21
55456;BME280;63021;52.836;6.376;2023-02-13T07:21:56;103918.31;;;6.60;77.29
55456;BME280;63021;52.836;6.376;2023-02-13T07:24:22;103916.56;;;6.59;77.17
55456;BME280;63021;52.836;6.376;2023-02-13T07:26:47;103910.47;;;6.57;76.76
55456;BME280;63021;52.836;6.376;2023-02-13T07:29:13;103912.22;;;6.58;77.69
55456;BME280;63021;52.836;6.376;2023-02-13T07:31:38;103913.84;;;6.62;77.06
55456;BME280;63021;52.836;6.376;2023-02-13T07:34:03;103910.38;;;6.60;77.27
55456;BME280;63021;52.836;6.376;2023-02-13T07:36:29;103904.13;;;6.63;77.44
55456;BME280;63021;52.836;6.376;2023-02-13T07:38:54;103931.38;;;6.66;77.21
55456;BME280;63021;52.836;6.376;2023-02-13T07:41:20;103898.69;;;6.67;77.48
55456;BME280;63021;52.836;6.376;2023-02-13T07:43:45;103905.69;;;6.70;77.25
55456;BME280;63021;52.836;6.376;2023-02-13T07:46:11;103892.50;;;6.68;77.30
55456;BME280;63021;52.836;6.376;2023-02-13T07:48:36;103893.31;;;6.70;77.44
55456;BME280;63021;52.836;6.376;2023-02-13T07:51:03;103889.84;;;6.68;77.13
55456;BME280;63021;52.836;6.376;2023-02-13T07:53:30;103910.88;;;6.73;77.37
55456;BME280;63021;52.836;6.376;2023-02-13T07:55:56;103917.97;;;6.72;77.38
55456;BME280;63021;52.836;6.376;2023-02-13T07:58:21;103915.22;;;6.75;77.41
55456;BME280;63021;52.836;6.376;2023-02-13T08:00:46;103915.22;;;6.75;77.36
55456;BME280;63021;52.836;6.376;2023-02-13T08:03:12;103896.63;;;6.77;77.24
55456;BME280;63021;52.836;6.376;2023-02-13T08:05:38;103897.44;;;6.79;77.58
55456;BME280;63021;52.836;6.376;2023-02-13T08:08:03;103899.13;;;6.82;77.41
55456;BME280;63021;52.836;6.376;2023-02-13T08:10:29;103902.59;;;6.84;77.20
55456;BME280;63021;52.836;6.376;2023-02-13T08:13:13;103909.63;;;6.85;77.40
55456;BME280;63021;52.836;6.376;2023-02-13T08:15:40;103904.22;;;6.88;77.62
55456;BME280;63021;52.836;6.376;2023-02-13T08:18:05;103905.97;;;6.89;77.19
55456;BME280;63021;52.836;6.376;2023-02-13T08:20:31;103907.69;;;6.91;77.03
55456;BME280;63021;52.836;6.376;2023-02-13T08:23:04;103928.81;;;6.93;77.05
55456;BME280;63021;52.836;6.376;2023-02-13T08:25:30;103925.22;;;6.96;77.39
55456;BME280;63021;52.836;6.376;2023-02-13T08:27:55;103929.50;;;6.98;77.13
55456;BME280;63021;52.836;6.376;2023-02-13T08:30:21;103913.59;;;7.00;76.94
55456;BME280;63021;52.836;6.376;2023-02-13T08:32:46;103922.38;;;7.02;76.95
55456;BME280;63021;52.836;6.376;2023-02-13T08:35:12;103919.66;;;7.03;76.78
55456;BME280;63021;52.836;6.376;2023-02-13T08:37:37;103941.63;;;7.07;76.90
55456;BME280;63021;52.836;6.376;2023-02-13T08:40:02;103937.28;;;7.04;76.99
55456;BME280;63021;52.836;6.376;2023-02-13T08:42:28;103937.09;;;7.10;76.97
55456;BME280;63021;52.836;6.376;2023-02-13T08:44:53;103910.59;;;7.10;77.06
55456;BME280;63021;52.836;6.376;2023-02-13T08:47:19;103930.75;;;7.16;76.66
55456;BME280;63021;52.836;6.376;2023-02-13T08:49:44;103920.19;;;7.15;76.76
55456;BME280;63021;52.836;6.376;2023-02-13T08:52:10;103902.66;;;7.10;76.79
55456;BME280;63021;52.836;6.376;2023-02-13T08:54:35;103921.72;;;7.22;76.92
55456;BME280;63021;52.836;6.376;2023-02-13T08:57:01;103922.53;;;7.24;77.42
55456;BME280;63021;52.836;6.376;2023-02-13T08:59:26;103911.34;;;7.16;76.83
55456;BME280;63021;52.836;6.376;2023-02-13T09:01:51;103926.94;;;7.25;76.53
55456;BME280;63021;52.836;6.376;2023-02-13T09:04:17;103932.06;;;7.29;76.91
55456;BME280;63021;52.836;6.376;2023-02-13T09:06:43;103930.25;;;7.32;76.75
55456;BME280;63021;52.836;6.376;2023-02-13T09:09:08;103936.41;;;7.32;76.83
55456;BME280;63021;52.836;6.376;2023-02-13T09:11:34;103927.59;;;7.32;77.06
55456;BME280;63021;52.836;6.376;2023-02-13T09:13:59;103942.59;;;7.33;77.12
55456;BME280;63021;52.836;6.376;2023-02-13T09:16:25;103925.72;;;7.35;77.41
55456;BME280;63021;52.836;6.376;2023-02-13T09:18:51;103931.00;;;7.35;76.91
55456;BME280;63021;52.836;6.376;2023-02-13T09:21:18;103929.19;;;7.37;77.20
55456;BME280;63021;52.836;6.376;2023-02-13T09:23:44;103921.25;;;7.37;77.02
55456;BME280;63021;52.836;6.376;2023-02-13T09:26:12;103931.69;;;7.42;77.18
55456;BME280;63021;52.836;6.376;2023-02-13T09:28:39;103924.53;;;7.44;77.18
55456;BME280;63021;52.836;6.376;2023-02-13T09:31:13;103926.22;;;7.46;76.86
55456;BME280;63021;52.836;6.376;2023-02-13T09:33:40;103931.53;;;7.46;77.25
55456;BME280;63021;52.836;6.376;2023-02-13T09:36:11;103928.78;;;7.50;77.54
55456;BME280;63021;52.836;6.376;2023-02-13T09:38:38;103926.97;;;7.52;77.62
55456;BME280;63021;52.836;6.376;2023-02-13T09:41:35;103934.81;;;7.55;77.09
55456;BME280;63021;52.836;6.376;2023-02-13T09:46:37;103923.13;;;7.60;77.10
55456;BME280;63021;52.836;6.376;2023-02-13T09:49:11;103925.78;;;7.60;77.14
55456;BME280;63021;52.836;6.376;2023-02-13T09:51:40;103908.06;;;7.61;77.45
55456;BME280;63021;52.836;6.376;2023-02-13T09:54:07;103916.75;;;7.66;76.89
55456;BME280;63021;52.836;6.376;2023-02-13T10:01:54;103920.16;;;7.70;76.96
55456;BME280;63021;52.836;6.376;2023-02-13T10:10:12;103908.28;;;7.82;77.30
55456;BME280;63021;52.836;6.376;2023-02-13T10:12:56;103913.47;;;7.85;77.15
55456;BME280;63021;52.836;6.376;2023-02-13T10:18:08;103912.38;;;7.90;77.20
55456;BME280;63021;52.836;6.376;2023-02-13T10:20:46;103913.13;;;7.94;77.29
55456;BME280;63021;52.836;6.376;2023-02-13T10:25:59;103910.16;;;8.03;76.72
55456;BME280;63021;52.836;6.376;2023-02-13T10:31:37;103912.47;;;8.12;77.03
55456;BME280;63021;52.836;6.376;2023-02-13T10:34:04;103904.22;;;8.20;77.40
55456;BME280;63021;52.836;6.376;2023-02-13T10:36:40;103908.56;;;8.23;76.94
55456;BME280;63021;52.836;6.376;2023-02-13T10:39:24;103913.75;;;8.26;76.79
55456;BME280;63021;52.836;6.376;2023-02-13T11:00:45;103908.16;;;8.59;76.70
55456;BME280;63021;52.836;6.376;2023-02-13T11:03:23;103901.00;;;8.61;76.04
55456;BME280;63021;52.836;6.376;2023-02-13T11:05:50;103915.06;;;8.63;76.59
55456;BME280;63021;52.836;6.376;2023-02-13T11:08:27;103906.84;;;8.69;76.59
55456;BME280;63021;52.836;6.376;2023-02-13T11:10:55;103897.13;;;8.70;76.50
55456;BME280;63021;52.836;6.376;2023-02-13T11:13:22;103903.94;;;8.77;75.95
55456;BME280;63021;52.836;6.376;2023-02-13T11:18:31;103895.03;;;8.78;76.37
55456;BME280;63021;52.836;6.376;2023-02-13T11:21:20;103894.91;;;8.81;76.04
55456;BME280;63021;52.836;6.376;2023-02-13T11:23:51;103890.34;;;8.84;76.24
55456;BME280;63021;52.836;6.376;2023-02-13T11:26:30;103887.63;;;8.86;76.19
55456;BME280;63021;52.836;6.376;2023-02-13T11:29:03;103881.25;;;8.90;75.88
55456;BME280;63021;52.836;6.376;2023-02-13T11:31:34;103881.06;;;8.95;76.14
55456;BME280;63021;52.836;6.376;2023-02-13T11:34:24;103863.41;;;8.94;75.92
55456;BME280;63021;52.836;6.376;2023-02-13T11:37:08;103870.94;;;9.05;76.12
55456;BME280;63021;52.836;6.376;2023-02-13T11:39:42;103857.72;;;9.03;75.87
55456;BME280;63021;52.836;6.376;2023-02-13T11:42:16;103868.06;;;9.11;75.51
55456;BME280;63021;52.836;6.376;2023-02-13T11:44:48;103861.78;;;9.12;75.88
55456;BME280;63021;52.836;6.376;2023-02-13T11:47:15;103858.22;;;9.13;76.10
55456;BME280;63021;52.836;6.376;2023-02-13T11:49:53;103855.22;;;9.21;76.10
55456;BME280;63021;52.836;6.376;2023-02-13T11:52:25;103850.59;;;9.26;75.78
55456;BME280;63021;52.836;6.376;2023-02-13T11:55:01;103855.63;;;9.32;75.50
55456;BME280;63021;52.836;6.376;2023-02-13T11:59:54;103859.69;;;9.41;75.31
55456;BME280;63021;52.836;6.376;2023-02-13T12:02:29;103841.69;;;9.47;75.30
55456;BME280;63021;52.836;6.376;2023-02-13T12:05:20;103845.81;;;9.54;75.44
55456;BME280;63021;52.836;6.376;2023-02-13T12:07:46;103836.78;;;9.59;75.06
55456;BME280;63021;52.836;6.376;2023-02-13T12:10:20;103834.69;;;9.65;75.19
55456;BME280;63021;52.836;6.376;2023-02-13T12:12:58;103826.59;;;9.68;75.49
55456;BME280;63021;52.836;6.376;2023-02-13T12:15:29;103815.75;;;9.73;75.30
55456;BME280;63021;52.836;6.376;2023-02-13T12:18:09;103825.34;;;9.77;74.59
55456;BME280;63021;52.836;6.376;2023-02-13T12:23:55;103819.50;;;9.88;74.47
55456;BME280;63021;52.836;6.376;2023-02-13T12:31:41;103810.53;;;9.91;73.94
55456;BME280;63021;52.836;6.376;2023-02-13T12:34:25;103810.53;;;9.91;73.46
55456;BME280;63021;52.836;6.376;2023-02-13T12:43:25;103788.88;;;9.98;73.18
55456;BME280;63021;52.836;6.376;2023-02-13T12:46:05;103803.06;;;9.99;73.01
55456;BME280;63021;52.836;6.376;2023-02-13T12:51:40;103788.97;;;9.97;72.83
55456;BME280;63021;52.836;6.376;2023-02-13T13:00:17;103800.13;;;10.05;72.70
55456;BME280;63021;52.836;6.376;2023-02-13T13:19:41;103785.16;;;10.02;71.64
55456;BME280;63021;52.836;6.376;2023-02-13T13:22:20;103788.69;;;10.03;71.48
55456;BME280;63021;52.836;6.376;2023-02-13T13:27:25;103777.97;;;10.04;71.06
55456;BME280;63021;52.836;6.376;2023-02-13T13:30:03;103771.69;;;10.05;71.60
55456;BME280;63021;52.836;6.376;2023-02-13T13:32:30;103773.44;;;10.06;71.55
55456;BME280;63021;52.836;6.376;2023-02-13T13:34:57;103764.44;;;10.09;71.14
55456;BME280;63021;52.836;6.376;2023-02-13T13:37:41;103769.56;;;10.14;71.67
55456;BME280;63021;52.836;6.376;2023-02-13T13:40:28;103787.47;;;10.10;70.55
55456;BME280;63021;52.836;6.376;2023-02-13T13:43:04;103770.47;;;10.13;71.00
55456;BME280;63021;52.836;6.376;2023-02-13T13:48:35;103768.41;;;10.19;70.92
55456;BME280;63021;52.836;6.376;2023-02-13T13:51:11;103760.25;;;10.22;70.88
55456;BME280;63021;52.836;6.376;2023-02-13T13:56:24;103749.19;;;10.32;70.73
55456;BME280;63021;52.836;6.376;2023-02-13T13:58:49;103745.47;;;10.36;69.90
55456;BME280;63021;52.836;6.376;2023-02-13T14:01:29;103743.50;;;10.39;70.19
55456;BME280;63021;52.836;6.376;2023-02-13T14:04:02;103743.44;;;10.41;70.16
55456;BME280;63021;52.836;6.376;2023-02-13T14:09:41;103734.81;;;10.36;69.80
55456;BME280;63021;52.836;6.376;2023-02-13T14:14:51;103741.34;;;10.29;70.10
55456;BME280;63021;52.836;6.376;2023-02-13T14:20:32;103748.19;;;10.15;70.14
55456;BME280;63021;52.836;6.376;2023-02-13T14:23:06;103763.53;;;10.10;69.46
55456;BME280;63021;52.836;6.376;2023-02-13T14:25:33;103758.38;;;10.05;69.94
55456;BME280;63021;52.836;6.376;2023-02-13T14:28:00;103744.44;;;10.00;69.38
55456;BME280;63021;52.836;6.376;2023-02-13T14:30:31;103734.66;;;10.01;69.44
55456;BME280;63021;52.836;6.376;2023-02-13T14:33:21;103727.91;;;9.94;69.13
55456;BME280;63021;52.836;6.376;2023-02-13T14:35:59;103738.41;;;9.97;69.39
55456;BME280;63021;52.836;6.376;2023-02-13T14:38:25;103728.81;;;9.93;69.83
55456;BME280;63021;52.836;6.376;2023-02-13T14:40:52;103725.16;;;9.95;69.98
55456;BME280;63021;52.836;6.376;2023-02-13T14:43:20;103724.09;;;9.99;69.83
55456;BME280;63021;52.836;6.376;2023-02-13T14:48:52;103723.88;;;10.04;69.24
55456;BME280;63021;52.836;6.376;2023-02-13T14:51:35;103719.66;;;10.00;69.45
55456;BME280;63021;52.836;6.376;2023-02-13T14:54:10;103726.53;;;10.04;68.92
55456;BME280;63021;52.836;6.376;2023-02-13T14:56:40;103720.28;;;10.05;69.72
55456;BME280;63021;52.836;6.376;2023-02-13T14:59:10;103723.00;;;10.03;69.33
55456;BME280;63021;52.836;6.376;2023-02-13T15:01:54;103708.78;;;10.04;69.24
55456;BME280;63021;52.836;6.376;2023-02-13T15:04:30;103712.50;;;10.00;69.31
55456;BME280;63021;52.836;6.376;2023-02-13T15:07:01;103700.34;;;9.95;69.29
55456;BME280;63021;52.836;6.376;2023-02-13T15:09:37;103710.06;;;9.96;69.39
55456;BME280;63021;52.836;6.376;2023-02-13T15:12:23;103722.78;;;9.89;69.09
55456;BME280;63021;52.836;6.376;2023-02-13T15:14:48;103723.03;;;9.84;68.89
55456;BME280;63021;52.836;6.376;2023-02-13T15:17:20;103719.53;;;9.82;69.05
55456;BME280;63021;52.836;6.376;2023-02-13T15:19:49;103710.94;;;9.77;69.43
55456;BME280;63021;52.836;6.376;2023-02-13T15:22:32;103717.31;;;9.73;69.14
55456;BME280;63021;52.836;6.376;2023-02-13T15:24:58;103718.31;;;9.70;69.86
55456;BME280;63021;52.836;6.376;2023-02-13T15:27:28;103715.66;;;9.70;69.32
55456;BME280;63021;52.836;6.376;2023-02-13T15:32:43;103708.75;;;9.66;69.50
55456;BME280;63021;52.836;6.376;2023-02-13T15:35:33;103708.81;;;9.65;69.43
55456;BME280;63021;52.836;6.376;2023-02-13T15:38:34;103712.47;;;9.62;69.99
55456;BME280;63021;52.836;6.376;2023-02-13T15:41:06;103702.13;;;9.56;69.69
55456;BME280;63021;52.836;6.376;2023-02-13T15:43:36;103722.81;;;9.49;70.02
55456;BME280;63021;52.836;6.376;2023-02-13T15:46:17;103721.88;;;9.50;69.62
55456;BME280;63021;52.836;6.376;2023-02-13T15:48:44;103695.00;;;9.38;69.76
55456;BME280;63021;52.836;6.376;2023-02-13T15:51:17;103703.63;;;9.43;69.82
55456;BME280;63021;52.836;6.376;2023-02-13T15:53:55;103705.47;;;9.41;70.01